sensor_id;sensor_type;location;lat;lon;timestamp;temperature;humidity
80290;SHT30;69592;44.804;-0.550;2023-11-19T00:00:16;11.97;95.67
80290;SHT30;69592;44.804;-0.550;2023-11-19T00:02:41;11.94;95.68
80290;SHT30;69592;44.804;-0.550;2023-11-19T00:05:07;11.97;95.94
80290;SHT30;69592;44.804;-0.550;2023-11-19T00:07:37;11.90;95.91
80290;SHT30;69592;44.804;-0.550;2023-11-19T00:10:10;11.92;95.86
80290;SHT30;69592;44.804;-0.550;2023-11-19T00:12:40;11.87;96.09
80290;SHT30;69592;44.804;-0.550;2023-11-19T00:15:07;11.86;96.22
80290;SHT30;69592;44.804;-0.550;2023-11-19T00:17:42;11.86;96.34
80290;SHT30;69592;44.804;-0.550;2023-11-19T00:20:18;11.89;96.51
80290;SHT30;69592;44.804;-0.550;2023-11-19T00:22:44;11.90;96.14
80290;SHT30;69592;44.804;-0.550;2023-11-19T00:25:13;11.85;96.39
80290;SHT30;69592;44.804;-0.550;2023-11-19T00:27:39;11.86;96.28
80290;SHT30;69592;44.804;-0.550;2023-11-19T00:30:05;11.86;96.20
80290;SHT30;69592;44.804;-0.550;2023-11-19T00:32:32;11.78;96.33
80290;SHT30;69592;44.804;-0.550;2023-11-19T00:34:57;11.80;96.41
80290;SHT30;69592;44.804;-0.550;2023-11-19T00:37:23;11.76;96.66
80290;SHT30;69592;44.804;-0.550;2023-11-19T00:39:48;11.78;96.95
80290;SHT30;69592;44.804;-0.550;2023-11-19T00:42:14;11.79;96.73
80290;SHT30;69592;44.804;-0.550;2023-11-19T00:44:39;11.83;96.65
80290;SHT30;69592;44.804;-0.550;2023-11-19T00:47:06;11.82;96.78
80290;SHT30;69592;44.804;-0.550;2023-11-19T00:49:31;11.80;96.63
80290;SHT30;69592;44.804;-0.550;2023-11-19T00:51:58;11.79;96.34
80290;SHT30;69592;44.804;-0.550;2023-11-19T00:54:24;11.79;96.17
80290;SHT30;69592;44.804;-0.550;2023-11-19T00:56:51;11.79;95.93
80290;SHT30;69592;44.804;-0.550;2023-11-19T00:59:17;11.78;96.04
80290;SHT30;69592;44.804;-0.550;2023-11-19T01:01:43;11.70;95.89
80290;SHT30;69592;44.804;-0.550;2023-11-19T01:04:09;11.76;95.87
80290;SHT30;69592;44.804;-0.550;2023-11-19T01:06:34;11.80;95.65
80290;SHT30;69592;44.804;-0.550;2023-11-19T01:08:59;11.82;95.56
80290;SHT30;69592;44.804;-0.550;2023-11-19T01:11:25;11.75;95.61
80290;SHT30;69592;44.804;-0.550;2023-11-19T01:13:52;11.83;95.66
80290;SHT30;69592;44.804;-0.550;2023-11-19T01:16:18;11.78;95.48
80290;SHT30;69592;44.804;-0.550;2023-11-19T01:18:44;11.73;95.33
80290;SHT30;69592;44.804;-0.550;2023-11-19T01:21:11;11.66;95.73
80290;SHT30;69592;44.804;-0.550;2023-11-19T01:23:37;11.62;96.24
80290;SHT30;69592;44.804;-0.550;2023-11-19T01:26:03;11.57;96.59
80290;SHT30;69592;44.804;-0.550;2023-11-19T01:28:28;11.58;96.51
80290;SHT30;69592;44.804;-0.550;2023-11-19T01:30:53;11.59;96.39
80290;SHT30;69592;44.804;-0.550;2023-11-19T01:33:19;11.55;96.47
80290;SHT30;69592;44.804;-0.550;2023-11-19T01:35:44;11.49;96.50
80290;SHT30;69592;44.804;-0.550;2023-11-19T01:38:10;11.49;96.92
80290;SHT30;69592;44.804;-0.550;2023-11-19T01:40:36;11.54;96.78
80290;SHT30;69592;44.804;-0.550;2023-11-19T01:43:02;11.51;96.94
80290;SHT30;69592;44.804;-0.550;2023-11-19T01:45:28;11.48;96.89
80290;SHT30;69592;44.804;-0.550;2023-11-19T01:47:59;11.48;96.88
80290;SHT30;69592;44.804;-0.550;2023-11-19T01:50:26;11.43;97.24
80290;SHT30;69592;44.804;-0.550;2023-11-19T01:52:53;11.38;97.33
80290;SHT30;69592;44.804;-0.550;2023-11-19T01:55:20;11.42;97.18
80290;SHT30;69592;44.804;-0.550;2023-11-19T01:57:46;11.42;97.04
80290;SHT30;69592;44.804;-0.550;2023-11-19T02:00:12;11.43;97.14
80290;SHT30;69592;44.804;-0.550;2023-11-19T02:02:38;11.48;97.00
80290;SHT30;69592;44.804;-0.550;2023-11-19T02:05:05;11.46;97.02
80290;SHT30;69592;44.804;-0.550;2023-11-19T02:07:31;11.48;97.00
80290;SHT30;69592;44.804;-0.550;2023-11-19T02:09:56;11.49;96.85
80290;SHT30;69592;44.804;-0.550;2023-11-19T02:12:24;11.49;96.76
80290;SHT30;69592;44.804;-0.550;2023-11-19T02:14:49;11.48;96.88
80290;SHT30;69592;44.804;-0.550;2023-11-19T02:17:33;11.45;96.74
80290;SHT30;69592;44.804;-0.550;2023-11-19T02:19:59;11.46;96.73
80290;SHT30;69592;44.804;-0.550;2023-11-19T02:22:25;11.41;96.84
80290;SHT30;69592;44.804;-0.550;2023-11-19T02:24:57;11.46;96.67
80290;SHT30;69592;44.804;-0.550;2023-11-19T02:27:38;11.46;96.50
80290;SHT30;69592;44.804;-0.550;2023-11-19T02:30:04;11.43;96.79
80290;SHT30;69592;44.804;-0.550;2023-11-19T02:32:34;11.42;96.83
80290;SHT30;69592;44.804;-0.550;2023-11-19T02:34:59;11.45;96.59
80290;SHT30;69592;44.804;-0.550;2023-11-19T02:37:24;11.45;96.40
80290;SHT30;69592;44.804;-0.550;2023-11-19T02:39:50;11.48;96.50
80290;SHT30;69592;44.804;-0.550;2023-11-19T02:42:15;11.48;96.23
80290;SHT30;69592;44.804;-0.550;2023-11-19T02:44:44;11.51;96.21
80290;SHT30;69592;44.804;-0.550;2023-11-19T02:47:10;11.52;96.50
80290;SHT30;69592;44.804;-0.550;2023-11-19T02:49:35;11.61;96.24
80290;SHT30;69592;44.804;-0.550;2023-11-19T02:52:02;11.70;96.18
80290;SHT30;69592;44.804;-0.550;2023-11-19T02:54:30;11.76;96.09
80290;SHT30;69592;44.804;-0.550;2023-11-19T02:57:00;11.83;95.96
80290;SHT30;69592;44.804;-0.550;2023-11-19T02:59:26;11.86;95.79
80290;SHT30;69592;44.804;-0.550;2023-11-19T03:01:53;11.86;95.70
80290;SHT30;69592;44.804;-0.550;2023-11-19T03:04:19;11.82;96.23
80290;SHT30;69592;44.804;-0.550;2023-11-19T03:06:48;11.86;96.18
80290;SHT30;69592;44.804;-0.550;2023-11-19T03:09:13;11.83;96.30
80290;SHT30;69592;44.804;-0.550;2023-11-19T03:11:39;11.86;96.44
80290;SHT30;69592;44.804;-0.550;2023-11-19T03:14:04;11.92;96.46
80290;SHT30;69592;44.804;-0.550;2023-11-19T03:16:30;11.97;96.29
80290;SHT30;69592;44.804;-0.550;2023-11-19T03:18:55;11.99;96.28
80290;SHT30;69592;44.804;-0.550;2023-11-19T03:21:30;12.00;96.66
80290;SHT30;69592;44.804;-0.550;2023-11-19T03:23:59;11.96;96.50
80290;SHT30;69592;44.804;-0.550;2023-11-19T03:26:28;12.00;96.54
80290;SHT30;69592;44.804;-0.550;2023-11-19T03:28:54;12.03;96.57
80290;SHT30;69592;44.804;-0.550;2023-11-19T03:31:20;12.03;96.62
80290;SHT30;69592;44.804;-0.550;2023-11-19T03:33:46;12.00;96.67
80290;SHT30;69592;44.804;-0.550;2023-11-19T03:36:12;11.99;96.63
80290;SHT30;69592;44.804;-0.550;2023-11-19T03:38:38;12.02;96.80
80290;SHT30;69592;44.804;-0.550;2023-11-19T03:41:12;12.00;96.79
80290;SHT30;69592;44.804;-0.550;2023-11-19T03:43:39;12.03;96.93
80290;SHT30;69592;44.804;-0.550;2023-11-19T03:46:04;12.02;96.92
80290;SHT30;69592;44.804;-0.550;2023-11-19T03:48:30;12.06;97.00
80290;SHT30;69592;44.804;-0.550;2023-11-19T03:50:56;12.02;96.94
80290;SHT30;69592;44.804;-0.550;2023-11-19T03:53:21;12.06;96.92
80290;SHT30;69592;44.804;-0.550;2023-11-19T03:55:46;12.07;96.90
80290;SHT30;69592;44.804;-0.550;2023-11-19T03:58:12;12.03;96.95
80290;SHT30;69592;44.804;-0.550;2023-11-19T04:00:37;12.04;97.10
80290;SHT30;69592;44.804;-0.550;2023-11-19T04:03:03;12.09;97.14
80290;SHT30;69592;44.804;-0.550;2023-11-19T04:05:28;12.03;97.35
80290;SHT30;69592;44.804;-0.550;2023-11-19T04:07:53;12.00;97.33
80290;SHT30;69592;44.804;-0.550;2023-11-19T04:10:19;11.96;97.52
80290;SHT30;69592;44.804;-0.550;2023-11-19T04:12:45;11.96;97.51
80290;SHT30;69592;44.804;-0.550;2023-11-19T04:15:11;11.97;97.61
80290;SHT30;69592;44.804;-0.550;2023-11-19T04:17:36;12.00;97.53
80290;SHT30;69592;44.804;-0.550;2023-11-19T04:20:02;12.03;97.57
80290;SHT30;69592;44.804;-0.550;2023-11-19T04:22:29;12.04;97.56
80290;SHT30;69592;44.804;-0.550;2023-11-19T04:24:54;12.06;97.78
80290;SHT30;69592;44.804;-0.550;2023-11-19T04:27:20;12.07;97.46
80290;SHT30;69592;44.804;-0.550;2023-11-19T04:29:45;12.07;97.50
80290;SHT30;69592;44.804;-0.550;2023-11-19T04:32:12;12.10;97.65
80290;SHT30;69592;44.804;-0.550;2023-11-19T04:34:37;12.20;97.47
80290;SHT30;69592;44.804;-0.550;2023-11-19T04:37:03;12.17;97.41
80290;SHT30;69592;44.804;-0.550;2023-11-19T04:39:29;12.12;97.49
80290;SHT30;69592;44.804;-0.550;2023-11-19T04:41:55;12.12;97.65
80290;SHT30;69592;44.804;-0.550;2023-11-19T04:44:20;12.13;97.48
80290;SHT30;69592;44.804;-0.550;2023-11-19T04:46:46;12.09;97.66
80290;SHT30;69592;44.804;-0.550;2023-11-19T04:49:12;12.02;97.91
80290;SHT30;69592;44.804;-0.550;2023-11-19T04:51:41;12.03;98.18
80290;SHT30;69592;44.804;-0.550;2023-11-19T04:54:10;11.99;98.18
80290;SHT30;69592;44.804;-0.550;2023-11-19T04:56:38;12.07;98.19
80290;SHT30;69592;44.804;-0.550;2023-11-19T04:59:05;12.14;98.11
80290;SHT30;69592;44.804;-0.550;2023-11-19T05:01:34;12.14;98.05
80290;SHT30;69592;44.804;-0.550;2023-11-19T05:04:00;12.12;98.12
80290;SHT30;69592;44.804;-0.550;2023-11-19T05:06:29;12.10;98.30
80290;SHT30;69592;44.804;-0.550;2023-11-19T05:08:55;12.07;98.17
80290;SHT30;69592;44.804;-0.550;2023-11-19T05:11:21;12.04;98.46
80290;SHT30;69592;44.804;-0.550;2023-11-19T05:13:46;12.07;98.34
80290;SHT30;69592;44.804;-0.550;2023-11-19T05:16:12;11.99;98.44
80290;SHT30;69592;44.804;-0.550;2023-11-19T05:18:39;12.03;98.57
80290;SHT30;69592;44.804;-0.550;2023-11-19T05:21:05;12.02;98.62
80290;SHT30;69592;44.804;-0.550;2023-11-19T05:23:32;11.97;98.67
80290;SHT30;69592;44.804;-0.550;2023-11-19T05:25:59;11.99;98.80
80290;SHT30;69592;44.804;-0.550;2023-11-19T05:28:24;11.96;98.73
80290;SHT30;69592;44.804;-0.550;2023-11-19T05:30:51;11.96;98.96
80290;SHT30;69592;44.804;-0.550;2023-11-19T05:33:17;12.02;98.75
80290;SHT30;69592;44.804;-0.550;2023-11-19T05:35:42;12.04;98.62
80290;SHT30;69592;44.804;-0.550;2023-11-19T05:38:07;12.03;98.67
80290;SHT30;69592;44.804;-0.550;2023-11-19T05:40:34;12.07;98.68
80290;SHT30;69592;44.804;-0.550;2023-11-19T05:43:00;12.07;98.71
80290;SHT30;69592;44.804;-0.550;2023-11-19T05:45:25;12.09;98.66
80290;SHT30;69592;44.804;-0.550;2023-11-19T05:47:51;12.12;98.70
80290;SHT30;69592;44.804;-0.550;2023-11-19T05:50:18;12.17;98.59
80290;SHT30;69592;44.804;-0.550;2023-11-19T05:52:44;12.19;98.53
80290;SHT30;69592;44.804;-0.550;2023-11-19T05:55:09;12.19;98.36
80290;SHT30;69592;44.804;-0.550;2023-11-19T05:57:38;12.16;98.40
80290;SHT30;69592;44.804;-0.550;2023-11-19T06:00:05;12.14;98.55
80290;SHT30;69592;44.804;-0.550;2023-11-19T06:02:32;12.14;98.58
80290;SHT30;69592;44.804;-0.550;2023-11-19T06:04:58;12.20;98.31
80290;SHT30;69592;44.804;-0.550;2023-11-19T06:07:23;12.20;98.52
80290;SHT30;69592;44.804;-0.550;2023-11-19T06:09:49;12.17;98.41
80290;SHT30;69592;44.804;-0.550;2023-11-19T06:12:14;12.17;98.50
80290;SHT30;69592;44.804;-0.550;2023-11-19T06:14:40;12.20;98.48
80290;SHT30;69592;44.804;-0.550;2023-11-19T06:17:05;12.13;98.65
80290;SHT30;69592;44.804;-0.550;2023-11-19T06:19:31;12.10;98.75
80290;SHT30;69592;44.804;-0.550;2023-11-19T06:21:56;12.13;98.77
80290;SHT30;69592;44.804;-0.550;2023-11-19T06:24:22;12.16;98.60
80290;SHT30;69592;44.804;-0.550;2023-11-19T06:26:47;12.21;98.52
80290;SHT30;69592;44.804;-0.550;2023-11-19T06:29:13;12.14;98.48
80290;SHT30;69592;44.804;-0.550;2023-11-19T06:31:43;12.17;98.77
80290;SHT30;69592;44.804;-0.550;2023-11-19T06:34:10;12.19;98.40
80290;SHT30;69592;44.804;-0.550;2023-11-19T06:36:35;12.24;98.28
80290;SHT30;69592;44.804;-0.550;2023-11-19T06:39:01;12.21;98.45
80290;SHT30;69592;44.804;-0.550;2023-11-19T06:41:27;12.23;98.31
80290;SHT30;69592;44.804;-0.550;2023-11-19T06:43:52;12.21;98.34
80290;SHT30;69592;44.804;-0.550;2023-11-19T06:46:18;12.27;98.26
80290;SHT30;69592;44.804;-0.550;2023-11-19T06:48:44;12.31;98.31
80290;SHT30;69592;44.804;-0.550;2023-11-19T06:51:10;12.34;98.21
80290;SHT30;69592;44.804;-0.550;2023-11-19T06:53:35;12.30;98.06
80290;SHT30;69592;44.804;-0.550;2023-11-19T06:56:01;12.30;98.05
80290;SHT30;69592;44.804;-0.550;2023-11-19T06:58:30;12.27;98.06
80290;SHT30;69592;44.804;-0.550;2023-11-19T07:00:56;12.23;98.19
80290;SHT30;69592;44.804;-0.550;2023-11-19T07:03:21;12.23;98.16
80290;SHT30;69592;44.804;-0.550;2023-11-19T07:05:47;12.27;98.10
80290;SHT30;69592;44.804;-0.550;2023-11-19T07:08:12;12.29;98.19
80290;SHT30;69592;44.804;-0.550;2023-11-19T07:10:37;12.30;98.19
80290;SHT30;69592;44.804;-0.550;2023-11-19T07:13:03;12.26;98.19
80290;SHT30;69592;44.804;-0.550;2023-11-19T07:15:31;12.36;98.24
80290;SHT30;69592;44.804;-0.550;2023-11-19T07:17:57;12.31;98.04
80290;SHT30;69592;44.804;-0.550;2023-11-19T07:20:24;12.37;98.15
80290;SHT30;69592;44.804;-0.550;2023-11-19T07:22:49;12.40;97.98
80290;SHT30;69592;44.804;-0.550;2023-11-19T07:25:15;12.45;97.97
80290;SHT30;69592;44.804;-0.550;2023-11-19T07:27:40;12.38;97.91
80290;SHT30;69592;44.804;-0.550;2023-11-19T07:30:06;12.47;97.97
80290;SHT30;69592;44.804;-0.550;2023-11-19T07:32:34;12.48;97.96
80290;SHT30;69592;44.804;-0.550;2023-11-19T07:35:00;12.47;97.90
80290;SHT30;69592;44.804;-0.550;2023-11-19T07:37:25;12.47;97.87
80290;SHT30;69592;44.804;-0.550;2023-11-19T07:39:51;12.55;97.85
80290;SHT30;69592;44.804;-0.550;2023-11-19T07:42:16;12.58;97.68
80290;SHT30;69592;44.804;-0.550;2023-11-19T07:44:43;12.61;97.65
80290;SHT30;69592;44.804;-0.550;2023-11-19T07:47:08;12.61;97.37
80290;SHT30;69592;44.804;-0.550;2023-11-19T07:49:34;12.57;97.38
80290;SHT30;69592;44.804;-0.550;2023-11-19T07:51:59;12.64;97.49
80290;SHT30;69592;44.804;-0.550;2023-11-19T07:54:24;12.63;97.33
80290;SHT30;69592;44.804;-0.550;2023-11-19T07:56:53;12.68;97.50
80290;SHT30;69592;44.804;-0.550;2023-11-19T07:59:18;12.69;97.50
80290;SHT30;69592;44.804;-0.550;2023-11-19T08:01:44;12.78;97.33
80290;SHT30;69592;44.804;-0.550;2023-11-19T08:04:09;12.84;97.05
80290;SHT30;69592;44.804;-0.550;2023-11-19T08:06:35;12.85;97.03
80290;SHT30;69592;44.804;-0.550;2023-11-19T08:09:00;12.89;96.87
80290;SHT30;69592;44.804;-0.550;2023-11-19T08:11:26;12.94;96.84
80290;SHT30;69592;44.804;-0.550;2023-11-19T08:13:51;12.91;96.96
80290;SHT30;69592;44.804;-0.550;2023-11-19T08:16:17;12.88;96.80
80290;SHT30;69592;44.804;-0.550;2023-11-19T08:18:45;12.91;96.87
80290;SHT30;69592;44.804;-0.550;2023-11-19T08:21:11;12.99;97.01
80290;SHT30;69592;44.804;-0.550;2023-11-19T08:23:36;13.06;96.93
80290;SHT30;69592;44.804;-0.550;2023-11-19T08:26:02;13.14;96.67
80290;SHT30;69592;44.804;-0.550;2023-11-19T08:28:28;13.18;96.84
80290;SHT30;69592;44.804;-0.550;2023-11-19T08:30:53;13.18;96.60
80290;SHT30;69592;44.804;-0.550;2023-11-19T08:33:18;13.30;96.36
80290;SHT30;69592;44.804;-0.550;2023-11-19T08:35:44;13.32;96.38
80290;SHT30;69592;44.804;-0.550;2023-11-19T08:38:10;13.50;96.29
80290;SHT30;69592;44.804;-0.550;2023-11-19T08:40:35;13.59;96.15
80290;SHT30;69592;44.804;-0.550;2023-11-19T08:43:01;13.56;95.78
80290;SHT30;69592;44.804;-0.550;2023-11-19T08:45:26;13.60;95.51
80290;SHT30;69592;44.804;-0.550;2023-11-19T08:47:51;13.67;95.49
80290;SHT30;69592;44.804;-0.550;2023-11-19T08:50:17;13.74;95.60
80290;SHT30;69592;44.804;-0.550;2023-11-19T08:52:42;13.83;95.26
80290;SHT30;69592;44.804;-0.550;2023-11-19T08:55:08;13.80;95.19
80290;SHT30;69592;44.804;-0.550;2023-11-19T08:57:35;13.88;95.51
80290;SHT30;69592;44.804;-0.550;2023-11-19T09:00:00;13.90;95.37
80290;SHT30;69592;44.804;-0.550;2023-11-19T09:02:26;14.07;94.93
80290;SHT30;69592;44.804;-0.550;2023-11-19T09:04:52;14.16;94.72
80290;SHT30;69592;44.804;-0.550;2023-11-19T09:07:17;14.30;94.40
80290;SHT30;69592;44.804;-0.550;2023-11-19T09:09:42;14.38;94.77
80290;SHT30;69592;44.804;-0.550;2023-11-19T09:12:08;14.42;94.41
80290;SHT30;69592;44.804;-0.550;2023-11-19T09:14:33;14.45;94.03
80290;SHT30;69592;44.804;-0.550;2023-11-19T09:16:59;14.46;94.13
80290;SHT30;69592;44.804;-0.550;2023-11-19T09:19:25;14.55;94.31
80290;SHT30;69592;44.804;-0.550;2023-11-19T09:21:52;14.57;94.19
80290;SHT30;69592;44.804;-0.550;2023-11-19T09:24:18;14.67;94.33
80290;SHT30;69592;44.804;-0.550;2023-11-19T09:26:43;14.72;94.14
80290;SHT30;69592;44.804;-0.550;2023-11-19T09:29:08;14.71;94.12
80290;SHT30;69592;44.804;-0.550;2023-11-19T09:31:34;14.81;94.18
80290;SHT30;69592;44.804;-0.550;2023-11-19T09:34:00;14.78;94.25
80290;SHT30;69592;44.804;-0.550;2023-11-19T09:36:29;14.75;94.33
80290;SHT30;69592;44.804;-0.550;2023-11-19T09:38:55;14.83;94.50
80290;SHT30;69592;44.804;-0.550;2023-11-19T09:41:20;14.89;94.08
80290;SHT30;69592;44.804;-0.550;2023-11-19T09:43:46;14.93;93.75
80290;SHT30;69592;44.804;-0.550;2023-11-19T09:46:16;15.00;94.03
80290;SHT30;69592;44.804;-0.550;2023-11-19T09:48:42;15.09;93.97
80290;SHT30;69592;44.804;-0.550;2023-11-19T09:51:10;15.14;93.77
80290;SHT30;69592;44.804;-0.550;2023-11-19T09:53:36;15.19;93.71
80290;SHT30;69592;44.804;-0.550;2023-11-19T09:56:03;15.27;93.67
80290;SHT30;69592;44.804;-0.550;2023-11-19T09:58:32;15.24;93.47
80290;SHT30;69592;44.804;-0.550;2023-11-19T10:01:00;15.33;93.34
80290;SHT30;69592;44.804;-0.550;2023-11-19T10:03:32;15.34;93.48
80290;SHT30;69592;44.804;-0.550;2023-11-19T10:06:01;15.43;93.26
80290;SHT30;69592;44.804;-0.550;2023-11-19T10:08:26;15.51;93.11
80290;SHT30;69592;44.804;-0.550;2023-11-19T10:10:52;15.60;93.01
80290;SHT30;69592;44.804;-0.550;2023-11-19T10:13:18;15.64;93.27
80290;SHT30;69592;44.804;-0.550;2023-11-19T10:15:43;15.73;92.93
80290;SHT30;69592;44.804;-0.550;2023-11-19T10:18:09;15.75;92.89
80290;SHT30;69592;44.804;-0.550;2023-11-19T10:20:40;15.87;92.90
80290;SHT30;69592;44.804;-0.550;2023-11-19T10:23:05;15.97;92.73
80290;SHT30;69592;44.804;-0.550;2023-11-19T10:25:32;15.93;92.70
80290;SHT30;69592;44.804;-0.550;2023-11-19T10:27:58;15.88;92.99
80290;SHT30;69592;44.804;-0.550;2023-11-19T10:30:25;15.94;92.77
80290;SHT30;69592;44.804;-0.550;2023-11-19T10:35:52;16.04;92.78
80290;SHT30;69592;44.804;-0.550;2023-11-19T10:38:38;16.17;92.73
80290;SHT30;69592;44.804;-0.550;2023-11-19T10:41:03;16.24;92.76
80290;SHT30;69592;44.804;-0.550;2023-11-19T10:43:30;16.32;92.43
80290;SHT30;69592;44.804;-0.550;2023-11-19T10:46:11;16.39;92.44
80290;SHT30;69592;44.804;-0.550;2023-11-19T10:48:38;16.55;92.13
80290;SHT30;69592;44.804;-0.550;2023-11-19T10:51:06;16.60;92.37
80290;SHT30;69592;44.804;-0.550;2023-11-19T10:53:37;16.66;92.07
80290;SHT30;69592;44.804;-0.550;2023-11-19T10:56:06;16.80;92.05
80290;SHT30;69592;44.804;-0.550;2023-11-19T10:58:35;16.94;92.09
80290;SHT30;69592;44.804;-0.550;2023-11-19T11:01:08;17.00;91.58
80290;SHT30;69592;44.804;-0.550;2023-11-19T11:03:40;17.04;91.65
80290;SHT30;69592;44.804;-0.550;2023-11-19T11:06:06;17.16;91.46
80290;SHT30;69592;44.804;-0.550;2023-11-19T11:08:38;17.24;91.33
80290;SHT30;69592;44.804;-0.550;2023-11-19T11:11:07;17.24;91.64
80290;SHT30;69592;44.804;-0.550;2023-11-19T11:13:34;17.31;91.62
80290;SHT30;69592;44.804;-0.550;2023-11-19T11:16:00;17.40;91.16
80290;SHT30;69592;44.804;-0.550;2023-11-19T11:18:27;17.52;90.63
80290;SHT30;69592;44.804;-0.550;2023-11-19T11:21:04;17.51;90.51
80290;SHT30;69592;44.804;-0.550;2023-11-19T11:26:47;17.74;90.18
80290;SHT30;69592;44.804;-0.550;2023-11-19T11:29:24;17.78;89.99
80290;SHT30;69592;44.804;-0.550;2023-11-19T11:37:36;17.86;89.75
80290;SHT30;69592;44.804;-0.550;2023-11-19T11:40:03;17.78;89.84
80290;SHT30;69592;44.804;-0.550;2023-11-19T11:42:36;17.82;89.60
80290;SHT30;69592;44.804;-0.550;2023-11-19T11:45:09;17.88;89.57
80290;SHT30;69592;44.804;-0.550;2023-11-19T11:55:39;17.71;90.20
80290;SHT30;69592;44.804;-0.550;2023-11-19T12:00:47;18.08;89.22
80290;SHT30;69592;44.804;-0.550;2023-11-19T12:03:12;18.29;88.90
80290;SHT30;69592;44.804;-0.550;2023-11-19T12:05:42;18.52;88.30
80290;SHT30;69592;44.804;-0.550;2023-11-19T12:08:10;18.67;88.51
80290;SHT30;69592;44.804;-0.550;2023-11-19T12:10:43;18.71;87.62
80290;SHT30;69592;44.804;-0.550;2023-11-19T12:13:09;18.67;87.97
80290;SHT30;69592;44.804;-0.550;2023-11-19T12:18:27;18.74;88.28
80290;SHT30;69592;44.804;-0.550;2023-11-19T12:20:56;18.74;88.20
80290;SHT30;69592;44.804;-0.550;2023-11-19T12:23:29;18.64;87.87
80290;SHT30;69592;44.804;-0.550;2023-11-19T12:25:55;18.46;88.49
80290;SHT30;69592;44.804;-0.550;2023-11-19T12:28:21;18.57;88.55
80290;SHT30;69592;44.804;-0.550;2023-11-19T12:30:47;18.76;88.51
80290;SHT30;69592;44.804;-0.550;2023-11-19T12:33:14;18.74;87.84
80290;SHT30;69592;44.804;-0.550;2023-11-19T12:35:44;18.63;88.30
80290;SHT30;69592;44.804;-0.550;2023-11-19T12:38:23;19.00;88.05
80290;SHT30;69592;44.804;-0.550;2023-11-19T12:41:08;19.18;86.94
80290;SHT30;69592;44.804;-0.550;2023-11-19T12:43:35;19.19;86.44
80290;SHT30;69592;44.804;-0.550;2023-11-19T12:46:23;19.28;86.61
80290;SHT30;69592;44.804;-0.550;2023-11-19T12:48:49;19.45;86.48
80290;SHT30;69592;44.804;-0.550;2023-11-19T12:51:14;19.54;86.49
80290;SHT30;69592;44.804;-0.550;2023-11-19T12:53:53;19.57;86.28
80290;SHT30;69592;44.804;-0.550;2023-11-19T12:56:23;19.58;85.83
80290;SHT30;69592;44.804;-0.550;2023-11-19T12:58:49;19.73;85.47
80290;SHT30;69592;44.804;-0.550;2023-11-19T13:01:17;19.65;85.49
80290;SHT30;69592;44.804;-0.550;2023-11-19T13:03:44;19.61;85.84
80290;SHT30;69592;44.804;-0.550;2023-11-19T13:06:11;19.59;85.85
80290;SHT30;69592;44.804;-0.550;2023-11-19T13:08:38;19.51;85.86
80290;SHT30;69592;44.804;-0.550;2023-11-19T13:11:07;19.38;86.07
80290;SHT30;69592;44.804;-0.550;2023-11-19T13:13:53;19.27;86.65
80290;SHT30;69592;44.804;-0.550;2023-11-19T13:16:18;19.18;87.19
80290;SHT30;69592;44.804;-0.550;2023-11-19T13:18:44;19.19;87.30
80290;SHT30;69592;44.804;-0.550;2023-11-19T13:21:09;19.34;87.39
80290;SHT30;69592;44.804;-0.550;2023-11-19T13:23:35;19.47;87.22
80290;SHT30;69592;44.804;-0.550;2023-11-19T13:26:00;19.52;87.06
80290;SHT30;69592;44.804;-0.550;2023-11-19T13:28:26;19.35;87.83
80290;SHT30;69592;44.804;-0.550;2023-11-19T13:30:53;19.42;88.28
80290;SHT30;69592;44.804;-0.550;2023-11-19T13:33:18;19.45;88.09
80290;SHT30;69592;44.804;-0.550;2023-11-19T13:35:44;19.39;88.15
80290;SHT30;69592;44.804;-0.550;2023-11-19T13:38:12;19.34;88.50
80290;SHT30;69592;44.804;-0.550;2023-11-19T13:40:38;19.21;89.00
80290;SHT30;69592;44.804;-0.550;2023-11-19T13:43:05;19.19;89.15
80290;SHT30;69592;44.804;-0.550;2023-11-19T13:45:31;19.25;89.11
80290;SHT30;69592;44.804;-0.550;2023-11-19T13:47:57;19.35;89.07
80290;SHT30;69592;44.804;-0.550;2023-11-19T13:50:22;19.41;88.90
80290;SHT30;69592;44.804;-0.550;2023-11-19T13:52:48;19.39;89.04
80290;SHT30;69592;44.804;-0.550;2023-11-19T13:55:14;19.35;89.40
80290;SHT30;69592;44.804;-0.550;2023-11-19T13:57:40;19.35;89.29
80290;SHT30;69592;44.804;-0.550;2023-11-19T14:00:08;19.29;89.14
80290;SHT30;69592;44.804;-0.550;2023-11-19T14:02:43;19.24;89.62
80290;SHT30;69592;44.804;-0.550;2023-11-19T14:05:09;19.22;89.97
80290;SHT30;69592;44.804;-0.550;2023-11-19T14:07:36;19.24;89.88
80290;SHT30;69592;44.804;-0.550;2023-11-19T14:10:01;19.21;89.67
80290;SHT30;69592;44.804;-0.550;2023-11-19T14:12:27;19.19;89.20
80290;SHT30;69592;44.804;-0.550;2023-11-19T14:14:52;19.24;88.75
80290;SHT30;69592;44.804;-0.550;2023-11-19T14:17:18;19.34;88.68
80290;SHT30;69592;44.804;-0.550;2023-11-19T14:19:44;19.36;88.12
80290;SHT30;69592;44.804;-0.550;2023-11-19T14:22:10;19.41;87.95
80290;SHT30;69592;44.804;-0.550;2023-11-19T14:24:35;19.47;88.10
80290;SHT30;69592;44.804;-0.550;2023-11-19T14:27:01;19.44;87.87
80290;SHT30;69592;44.804;-0.550;2023-11-19T14:29:27;19.41;88.09
80290;SHT30;69592;44.804;-0.550;2023-11-19T14:31:53;19.47;87.59
80290;SHT30;69592;44.804;-0.550;2023-11-19T14:34:19;19.47;87.68
80290;SHT30;69592;44.804;-0.550;2023-11-19T14:36:45;19.48;87.64
80290;SHT30;69592;44.804;-0.550;2023-11-19T14:39:10;19.38;87.38
80290;SHT30;69592;44.804;-0.550;2023-11-19T14:41:36;19.48;87.23
80290;SHT30;69592;44.804;-0.550;2023-11-19T14:44:01;19.38;86.47
80290;SHT30;69592;44.804;-0.550;2023-11-19T14:46:28;19.36;86.76
80290;SHT30;69592;44.804;-0.550;2023-11-19T14:48:54;19.27;85.76
80290;SHT30;69592;44.804;-0.550;2023-11-19T14:51:19;19.24;86.77
80290;SHT30;69592;44.804;-0.550;2023-11-19T14:53:45;19.24;86.80
80290;SHT30;69592;44.804;-0.550;2023-11-19T14:56:11;19.25;86.84
80290;SHT30;69592;44.804;-0.550;2023-11-19T14:58:38;19.21;86.74
80290;SHT30;69592;44.804;-0.550;2023-11-19T15:01:03;19.15;87.28
80290;SHT30;69592;44.804;-0.550;2023-11-19T15:03:30;19.12;87.03
80290;SHT30;69592;44.804;-0.550;2023-11-19T15:05:56;19.14;87.01
80290;SHT30;69592;44.804;-0.550;2023-11-19T15:08:21;19.12;87.06
80290;SHT30;69592;44.804;-0.550;2023-11-19T15:10:47;19.18;87.08
80290;SHT30;69592;44.804;-0.550;2023-11-19T15:13:12;19.22;86.96
80290;SHT30;69592;44.804;-0.550;2023-11-19T15:15:37;19.28;86.84
80290;SHT30;69592;44.804;-0.550;2023-11-19T15:18:04;19.27;86.67
80290;SHT30;69592;44.804;-0.550;2023-11-19T15:20:30;19.31;86.78
80290;SHT30;69592;44.804;-0.550;2023-11-19T15:22:56;19.29;86.81
80290;SHT30;69592;44.804;-0.550;2023-11-19T15:25:22;19.42;86.76
80290;SHT30;69592;44.804;-0.550;2023-11-19T15:27:48;19.35;86.34
80290;SHT30;69592;44.804;-0.550;2023-11-19T15:30:13;19.27;86.88
80290;SHT30;69592;44.804;-0.550;2023-11-19T15:32:39;19.19;86.66
80290;SHT30;69592;44.804;-0.550;2023-11-19T15:35:04;19.24;87.31
80290;SHT30;69592;44.804;-0.550;2023-11-19T15:37:32;19.15;87.33